Time;durP1;ratioP1;P1;durP2;ratioP2;P2;SDS_P1;SDS_P2;PMS_P1;PMS_P2;Temp;Humidity;BMP_temperature;BMP_pressure;BME280_temperature;BME280_humidity;BME280_pressure;Samples;Min_cycle;Max_cycle;Signal;HPM_P1;HPM_P2
2021/06/27 00:01:25;;;;;;;20.30;9.60;;;;;;;17.60;71.61;99046.63;125678;1093;102959;-67
2021/06/27 00:03:56;;;;;;;27.97;10.00;;;;;;;17.60;71.65;99049.32;125637;1093;103345;-67
2021/06/27 00:06:27;;;;;;;21.83;10.10;;;;;;;17.60;72.06;99039.39;125656;1093;102928;-66
2021/06/27 00:08:55;;;;;;;19.40;10.00;;;;;;;17.60;71.72;99052.01;125689;1093;103040;-66
2021/06/27 00:11:26;;;;;;;21.00;10.63;;;;;;;17.58;71.65;99051.32;125612;1093;103026;-67
2021/06/27 00:13:54;;;;;;;20.10;9.83;;;;;;;17.56;71.85;99051.46;125702;1093;102936;-68
2021/06/27 00:16:27;;;;;;;29.63;19.50;;;;;;;17.53;72.15;99041.02;125594;1093;103025;-66
2021/06/27 00:19:00;;;;;;;23.37;11.73;;;;;;;17.52;71.89;99047.42;125656;1091;102910;-67
2021/06/27 00:21:30;;;;;;;21.13;10.20;;;;;;;17.48;71.76;99043.36;125669;1092;103066;-66
2021/06/27 00:23:59;;;;;;;19.10;9.80;;;;;;;17.47;71.76;99042.50;125574;1092;103051;-66
2021/06/27 00:26:30;;;;;;;19.40;9.17;;;;;;;17.45;71.81;99051.73;125657;1094;102988;-66
2021/06/27 00:28:59;;;;;;;20.20;10.03;;;;;;;17.44;72.21;99056.25;125680;1092;102938;-65
2021/06/27 00:31:28;;;;;;;22.23;10.10;;;;;;;17.44;71.70;99058.12;125689;1092;103052;-67
2021/06/27 00:33:58;;;;;;;19.27;10.03;;;;;;;17.44;71.88;99058.12;125686;1096;102987;-67
2021/06/27 00:36:28;;;;;;;23.17;10.67;;;;;;;17.43;71.88;99049.19;125641;1093;103026;-66
2021/06/27 00:38:57;;;;;;;21.77;10.63;;;;;;;17.43;72.09;99049.19;125655;1095;103007;-67
2021/06/27 00:41:26;;;;;;;22.43;10.47;;;;;;;17.44;71.81;99053.56;125655;1096;103011;-66
2021/06/27 00:43:59;;;;;;;21.30;9.93;;;;;;;17.43;71.88;99048.36;125709;1092;103470;-66
2021/06/27 00:46:27;;;;;;;26.10;10.37;;;;;;;17.42;72.10;99050.19;125658;1093;103010;-66
2021/06/27 00:48:57;;;;;;;20.60;10.13;;;;;;;17.41;71.99;99043.98;125649;1092;102923;-66
2021/06/27 00:51:26;;;;;;;20.67;10.40;;;;;;;17.40;71.99;99050.36;125649;1093;102935;-68
2021/06/27 00:53:57;;;;;;;22.43;10.17;;;;;;;17.39;71.91;99047.81;125662;1093;103364;-67
2021/06/27 00:56:25;;;;;;;21.47;10.40;;;;;;;17.37;72.32;99056.05;125674;1096;103044;-66
2021/06/27 00:58:54;;;;;;;17.97;10.10;;;;;;;17.37;72.24;99056.05;125655;1092;103065;-66
2021/06/27 01:01:22;;;;;;;22.00;10.43;;;;;;;17.36;72.08;99061.56;125609;1093;103048;-66
2021/06/27 01:03:52;;;;;;;22.77;10.27;;;;;;;17.35;72.32;99059.88;125625;1093;103012;-66
2021/06/27 01:06:20;;;;;;;23.67;9.83;;;;;;;17.33;72.01;99068.11;125669;1093;102939;-66
2021/06/27 01:08:52;;;;;;;20.90;10.10;;;;;;;17.29;72.07;99064.04;125687;1093;103020;-66
2021/06/27 01:11:20;;;;;;;20.07;9.93;;;;;;;17.25;72.09;99068.03;125680;1093;102930;-66
2021/06/27 01:13:50;;;;;;;21.90;10.15;;;;;;;17.24;72.43;99074.41;125659;1093;103508;-67
2021/06/27 01:16:19;;;;;;;20.77;10.43;;;;;;;17.24;72.23;99069.89;125706;1092;103061;-66
2021/06/27 01:18:54;;;;;;;26.37;11.30;;;;;;;17.23;72.34;99064.66;125649;1093;102949;-68
2021/06/27 01:21:24;;;;;;;18.97;9.50;;;;;;;17.21;72.42;99063.96;125637;1092;102920;-66
2021/06/27 01:23:53;;;;;;;21.63;10.63;;;;;;;17.20;72.44;99065.82;125542;1091;102989;-66
2021/06/27 01:26:21;;;;;;;19.90;9.70;;;;;;;17.18;72.00;99064.27;125519;1093;102939;-66
2021/06/27 01:28:52;;;;;;;19.80;9.80;;;;;;;17.16;72.47;99059.06;126230;1093;102930;-67
2021/06/27 01:31:21;;;;;;;18.07;9.30;;;;;;;17.16;72.41;99056.38;125675;1093;102916;-68
2021/06/27 01:33:52;;;;;;;18.70;9.20;;;;;;;17.15;72.60;99056.52;125671;1093;103157;-66
2021/06/27 01:36:25;;;;;;;21.77;10.67;;;;;;;17.15;72.68;99060.06;125565;1093;103065;-65
2021/06/27 01:38:56;;;;;;;18.43;9.80;;;;;;;17.11;72.33;99062.22;125607;1095;103387;-66
2021/06/27 01:41:27;;;;;;;19.93;10.00;;;;;;;17.10;72.20;99049.78;125675;1092;102911;-66
2021/06/27 01:43:57;;;;;;;21.10;10.83;;;;;;;17.09;72.33;99050.78;125676;1093;102916;-66
2021/06/27 01:46:27;;;;;;;21.73;10.23;;;;;;;17.08;72.46;99058.98;125713;1092;102991;-66
2021/06/27 01:48:58;;;;;;;20.57;8.50;;;;;;;17.05;72.19;99056.60;125598;1093;102996;-66
2021/06/27 01:51:26;;;;;;;21.73;10.77;;;;;;;17.00;72.56;99054.39;125522;1096;103060;-66
2021/06/27 01:53:55;;;;;;;21.93;10.87;;;;;;;16.99;72.70;99054.52;125679;1092;103585;-64
2021/06/27 01:56:23;;;;;;;22.07;9.50;;;;;;;16.95;72.67;99053.97;125672;1096;102997;-66
2021/06/27 01:58:52;;;;;;;20.77;10.20;;;;;;;16.90;72.49;99053.58;125685;1091;103017;-65
2021/06/27 02:01:28;;;;;;;21.23;9.97;;;;;;;16.88;72.35;99048.38;125659;1097;103006;-71
2021/06/27 02:03:58;;;;;;;19.77;9.93;;;;;;;16.88;72.53;99047.51;125639;1095;103137;-67
2021/06/27 02:06:29;;;;;;;18.00;9.10;;;;;;;16.87;72.85;99046.68;125606;1095;102936;-66
2021/06/27 02:08:58;;;;;;;19.83;9.57;;;;;;;16.85;72.55;99043.30;125607;1092;103055;-66
2021/06/27 02:11:29;;;;;;;24.00;10.87;;;;;;;16.83;72.90;99045.30;125591;1092;102903;-66
2021/06/27 02:13:59;;;;;;;22.03;11.03;;;;;;;16.82;72.74;99044.44;125625;1091;103172;-67
2021/06/27 02:16:28;;;;;;;19.93;10.13;;;;;;;16.82;72.69;99043.61;125640;1093;103119;-66
2021/06/27 02:18:59;;;;;;;20.70;10.47;;;;;;;16.82;72.47;99041.75;125567;1093;102912;-66
2021/06/27 02:21:34;;;;;;;23.77;11.03;;;;;;;16.82;72.59;99041.75;125613;1093;102930;-67
2021/06/27 02:24:05;;;;;;;20.57;11.33;;;;;;;16.81;72.53;99034.69;125689;1096;103067;-67
2021/06/27 02:26:36;;;;;;;22.23;11.23;;;;;;;16.83;72.51;99034.55;125670;1092;102933;-68
2021/06/27 02:29:06;;;;;;;22.37;11.80;;;;;;;16.82;72.58;99038.23;125608;1096;103046;-67
2021/06/27 02:31:36;;;;;;;21.23;11.97;;;;;;;16.82;72.77;99041.75;125678;1093;102945;-67
2021/06/27 02:34:05;;;;;;;22.30;11.87;;;;;;;16.82;72.66;99043.61;125637;1093;102913;-67
2021/06/27 02:36:33;;;;;;;19.97;11.67;;;;;;;16.81;72.65;99037.38;125653;1094;102898;-67
2021/06/27 02:39:03;;;;;;;19.23;10.93;;;;;;;16.80;72.70;99034.86;125676;1093;103121;-67
2021/06/27 02:41:35;;;;;;;20.87;10.87;;;;;;;16.80;72.96;99034.86;125652;1093;102914;-66
2021/06/27 02:44:08;;;;;;;22.17;11.60;;;;;;;16.78;72.96;99034.98;125655;1096;103076;-67
2021/06/27 02:46:37;;;;;;;21.80;11.50;;;;;;;16.78;72.72;99034.16;125638;1095;102947;-68
2021/06/27 02:49:11;;;;;;;22.13;12.10;;;;;;;16.77;72.78;99045.90;125647;1093;103003;-67
2021/06/27 02:51:39;;;;;;;21.57;12.07;;;;;;;16.77;73.00;99045.90;125687;1093;103077;-66
2021/06/27 02:54:09;;;;;;;21.27;11.53;;;;;;;16.75;72.92;99043.34;125648;1096;103070;-67
2021/06/27 02:56:37;;;;;;;24.00;11.77;;;;;;;16.74;72.94;99052.41;125623;1094;103066;-66
2021/06/27 02:59:05;;;;;;;21.40;12.03;;;;;;;16.74;72.69;99038.97;125653;1096;103070;-67
2021/06/27 03:01:34;;;;;;;22.23;11.40;;;;;;;16.74;72.70;99047.03;125651;1096;102920;-66
2021/06/27 03:04:04;;;;;;;24.53;11.90;;;;;;;16.75;73.02;99043.34;125674;1092;103233;-67
2021/06/27 03:06:32;;;;;;;21.60;11.33;;;;;;;16.73;72.90;99039.97;125620;1094;103139;-67
2021/06/27 03:09:00;;;;;;;25.17;11.40;;;;;;;16.74;72.67;99030.09;125702;1093;103014;-67
2021/06/27 03:11:30;;;;;;;22.20;11.25;;;;;;;16.73;72.90;99037.28;125642;1093;103009;-67
2021/06/27 03:14:01;;;;;;;23.97;12.30;;;;;;;16.73;72.76;99031.91;125653;1093;102913;-66
2021/06/27 03:16:29;;;;;;;22.40;12.23;;;;;;;16.75;72.88;99029.92;125679;1093;103035;-65
2021/06/27 03:18:59;;;;;;;21.50;11.63;;;;;;;16.75;72.84;99037.98;125652;1093;103017;-65
2021/06/27 03:21:29;;;;;;;22.90;11.85;;;;;;;16.76;72.97;99044.20;125683;1093;102965;-65
2021/06/27 03:23:57;;;;;;;23.40;13.80;;;;;;;16.77;72.89;99045.90;125638;1093;103065;-65
2021/06/27 03:26:25;;;;;;;24.90;12.40;;;;;;;16.77;73.12;99044.05;125685;1093;102940;-66
2021/06/27 03:28:53;;;;;;;22.17;12.60;;;;;;;16.78;73.34;99055.64;125658;1093;103020;-65
2021/06/27 03:31:22;;;;;;;22.20;11.83;;;;;;;16.79;73.18;99054.65;125625;1096;103371;-65
2021/06/27 03:33:52;;;;;;;24.30;12.63;;;;;;;16.81;73.29;99050.80;125676;1093;103421;-66
2021/06/27 03:36:20;;;;;;;23.80;12.40;;;;;;;16.82;73.11;99049.81;125643;1093;102920;-66
2021/06/27 03:41:21;;;;;;;25.27;12.60;;;;;;;16.85;73.42;99045.98;125658;1093;102967;-68
2021/06/27 03:43:53;;;;;;;26.17;13.37;;;;;;;16.87;73.38;99048.50;125704;1093;103057;-66
2021/06/27 03:46:23;;;;;;;23.10;12.77;;;;;;;16.87;73.22;99041.31;125650;1093;103059;-67
2021/06/27 03:48:54;;;;;;;23.07;12.57;;;;;;;16.88;73.35;99048.38;125652;1092;102911;-67
2021/06/27 03:51:22;;;;;;;21.27;12.40;;;;;;;16.90;73.00;99042.83;125682;1093;103065;-66
2021/06/27 03:53:52;;;;;;;24.27;12.87;;;;;;;16.90;73.39;99035.63;125690;1093;102936;-66
2021/06/27 03:56:24;;;;;;;21.97;12.53;;;;;;;16.91;73.19;99037.29;125659;1093;103012;-66
2021/06/27 03:58:54;;;;;;;25.07;13.03;;;;;;;16.92;73.32;99030.92;125672;1093;103006;-67
2021/06/27 04:01:25;;;;;;;22.20;12.95;;;;;;;16.95;73.52;99032.47;125683;1092;103065;-67
2021/06/27 04:03:55;;;;;;;22.67;13.10;;;;;;;16.97;73.06;99033.20;125691;1093;103091;-67
2021/06/27 04:06:27;;;;;;;22.10;12.30;;;;;;;17.00;73.15;99030.20;125680;1093;102942;-67
2021/06/27 04:08:55;;;;;;;23.67;12.20;;;;;;;17.02;73.53;99027.34;125696;1092;102916;-67
2021/06/27 04:11:23;;;;;;;23.27;12.17;;;;;;;17.06;73.09;99034.11;125648;1093;103007;-67
2021/06/27 04:13:52;;;;;;;23.90;13.07;;;;;;;17.08;73.45;99032.97;125627;1093;103056;-66
2021/06/27 04:16:20;;;;;;;21.37;11.97;;;;;;;17.10;73.58;99046.23;125651;1093;102914;-66
2021/06/27 04:18:49;;;;;;;22.23;12.03;;;;;;;17.13;73.41;99042.38;126665;1094;102921;-66
2021/06/27 04:21:18;;;;;;;22.73;13.20;;;;;;;17.18;73.57;99045.45;125589;1096;103065;-67
2021/06/27 04:23:46;;;;;;;27.40;13.53;;;;;;;17.21;73.19;99050.52;125641;1094;103011;-67
2021/06/27 04:26:15;;;;;;;25.50;12.33;;;;;;;17.24;73.33;99048.39;125621;1096;103009;-69
2021/06/27 04:28:44;;;;;;;23.27;13.40;;;;;;;17.25;73.23;99044.70;125627;1095;102933;-65
2021/06/27 04:31:12;;;;;;;21.63;12.83;;;;;;;17.29;73.41;99039.02;126319;1094;103033;-65
2021/06/27 04:33:41;;;;;;;22.37;12.87;;;;;;;17.32;73.65;99047.59;125616;1094;103080;-66
2021/06/27 04:36:12;;;;;;;21.97;12.30;;;;;;;17.37;73.35;99047.12;125609;1094;103386;-67
2021/06/27 04:38:42;;;;;;;21.25;12.45;;;;;;;17.39;73.33;99040.60;125627;1096;103039;-66
2021/06/27 04:41:11;;;;;;;26.73;13.87;;;;;;;17.43;73.19;99042.98;125654;1096;102908;-66
2021/06/27 04:43:40;;;;;;;24.55;12.60;;;;;;;17.48;73.26;99041.50;125629;1096;102980;-66
2021/06/27 04:46:10;;;;;;;23.20;13.13;;;;;;;17.51;73.49;99043.05;125649;1095;103143;-66
2021/06/27 04:48:40;;;;;;;25.07;13.37;;;;;;;17.54;73.31;99048.08;125673;1095;103009;-67
2021/06/27 04:51:10;;;;;;;25.47;13.53;;;;;;;17.59;73.63;99040.39;125634;1096;103087;-67
2021/06/27 04:53:38;;;;;;;24.67;13.30;;;;;;;17.63;73.56;99044.45;125692;1094;102942;-67
2021/06/27 04:56:07;;;;;;;22.53;12.80;;;;;;;17.69;73.78;99043.00;125668;1097;103102;-69
2021/06/27 04:58:37;;;;;;;22.90;13.57;;;;;;;17.75;73.54;99044.20;125648;1097;103125;-66
2021/06/27 05:01:07;;;;;;;23.57;12.67;;;;;;;17.80;73.60;99050.78;125663;1096;103020;-66
2021/06/27 05:03:37;;;;;;;21.77;12.77;;;;;;;17.87;73.58;99048.32;125645;1095;102958;-66
2021/06/27 05:06:05;;;;;;;22.23;13.83;;;;;;;17.91;73.36;99047.00;125663;1094;103373;-66
2021/06/27 05:08:35;;;;;;;24.97;12.67;;;;;;;17.93;73.57;99054.90;125601;1095;103105;-67
2021/06/27 05:11:05;;;;;;;23.17;13.23;;;;;;;17.94;73.74;99061.97;125611;1093;103007;-67
2021/06/27 05:13:33;;;;;;;21.90;12.50;;;;;;;17.97;73.88;99057.09;125624;1096;103009;-66
2021/06/27 05:16:05;;;;;;;21.57;12.33;;;;;;;18.02;73.73;99058.50;125571;1093;102919;-69
2021/06/27 05:18:33;;;;;;;22.20;12.30;;;;;;;18.05;73.34;99053.66;125673;1096;103604;-67
2021/06/27 05:21:01;;;;;;;22.03;11.57;;;;;;;18.09;73.49;99056.86;125633;1092;102996;-66
2021/06/27 05:23:31;;;;;;;20.87;11.87;;;;;;;18.11;73.75;99057.55;125645;1092;102922;-68
2021/06/27 05:26:00;;;;;;;25.07;12.90;;;;;;;18.17;73.33;99053.36;125679;1096;103020;-68
2021/06/27 05:28:30;;;;;;;21.17;12.63;;;;;;;18.23;73.77;99055.41;125673;1093;103055;-66
2021/06/27 05:30:58;;;;;;;21.97;12.23;;;;;;;18.27;73.75;99049.56;125677;1094;103003;-68
2021/06/27 05:33:28;;;;;;;21.43;12.50;;;;;;;18.32;73.16;99043.67;125640;1095;103003;-67
2021/06/27 05:35:57;;;;;;;22.27;12.70;;;;;;;18.38;73.65;99047.55;125649;1096;103064;-68
2021/06/27 05:38:29;;;;;;;22.20;12.27;;;;;;;18.44;73.66;99053.16;125686;1096;103008;-68
2021/06/27 05:40:58;;;;;;;21.23;12.27;;;;;;;18.55;73.58;99057.39;125672;1096;102981;-67
2021/06/27 05:43:27;;;;;;;20.83;11.63;;;;;;;18.69;73.40;99060.47;125645;1093;102942;-67
2021/06/27 05:45:56;;;;;;;21.90;12.77;;;;;;;18.80;73.31;99056.61;125648;1091;103060;-67
2021/06/27 05:48:26;;;;;;;23.63;12.63;;;;;;;18.93;73.09;99050.73;125659;1091;103112;-67
2021/06/27 05:50:56;;;;;;;20.70;11.60;;;;;;;19.06;73.56;99048.44;126522;1096;102994;-66
2021/06/27 05:53:24;;;;;;;23.00;11.83;;;;;;;19.17;73.29;99047.25;125598;1092;103007;-68
2021/06/27 05:56:09;;;;;;;21.50;12.47;;;;;;;19.28;73.37;99054.16;125665;1093;103530;-69
2021/06/27 05:58:45;;;;;;;21.83;11.43;;;;;;;19.37;73.28;99054.99;125617;1093;103023;-68
2021/06/27 06:01:18;;;;;;;20.30;11.70;;;;;;;19.46;73.38;99059.38;125652;1096;103150;-68
2021/06/27 06:03:46;;;;;;;22.48;12.43;;;;;;;19.53;73.18;99057.69;125647;1094;102948;-68
2021/06/27 06:06:14;;;;;;;21.35;11.35;;;;;;;19.63;73.27;99063.77;125643;1092;102939;-67
2021/06/27 06:08:43;;;;;;;19.63;12.23;;;;;;;19.75;73.23;99060.72;125641;1095;103012;-68
2021/06/27 06:11:17;;;;;;;22.88;13.65;;;;;;;19.85;73.21;99058.65;125667;1093;103006;-68
2021/06/27 06:13:47;;;;;;;20.57;12.63;;;;;;;19.97;72.88;99067.25;125609;1096;102911;-67
2021/06/27 06:16:17;;;;;;;23.67;12.30;;;;;;;20.07;73.02;99067.08;125644;1096;102912;-67
2021/06/27 06:18:47;;;;;;;24.13;13.57;;;;;;;20.19;73.11;99065.66;125641;1095;102994;-66
2021/06/27 06:21:17;;;;;;;20.43;12.27;;;;;;;20.30;72.46;99069.87;125666;1092;102927;-67
2021/06/27 06:23:46;;;;;;;23.00;11.65;;;;;;;20.42;72.93;99069.46;125684;1092;103364;-68
2021/06/27 06:26:15;;;;;;;20.63;11.53;;;;;;;20.57;72.98;99062.31;125683;1093;102904;-67
2021/06/27 06:28:44;;;;;;;22.10;11.93;;;;;;;20.76;72.72;99060.20;125693;1093;103540;-68
2021/06/27 06:31:14;;;;;;;23.20;12.10;;;;;;;20.90;72.76;99064.02;125672;1096;103090;-69
2021/06/27 06:33:43;;;;;;;21.97;12.80;;;;;;;20.99;72.49;99059.39;125661;1093;102933;-67
2021/06/27 06:36:11;;;;;;;22.43;12.77;;;;;;;21.10;72.57;99061.69;125715;1093;102967;-66
2021/06/27 06:38:39;;;;;;;23.93;12.10;;;;;;;21.21;72.47;99063.95;125612;1096;102968;-67
2021/06/27 06:41:08;;;;;;;24.97;13.97;;;;;;;21.34;72.78;99060.66;125678;1092;103345;-68
2021/06/27 06:43:36;;;;;;;25.60;14.43;;;;;;;21.48;72.46;99064.42;125595;1095;102999;-67
2021/06/27 06:46:06;;;;;;;23.23;12.37;;;;;;;21.62;72.22;99067.36;125663;1093;102991;-67
2021/06/27 06:48:36;;;;;;;22.73;11.77;;;;;;;21.69;72.13;99068.31;125681;1093;103061;-66
2021/06/27 06:51:06;;;;;;;19.47;10.77;;;;;;;21.81;72.37;99057.88;125607;1092;103057;-68
2021/06/27 06:53:35;;;;;;;21.23;11.17;;;;;;;21.98;72.10;99063.98;125671;1093;102935;-68
2021/06/27 06:56:05;;;;;;;20.40;11.07;;;;;;;22.13;72.00;99058.56;125640;1096;103046;-67
2021/06/27 06:58:33;;;;;;;24.63;13.07;;;;;;;22.29;71.85;99055.64;125644;1096;102913;-68
2021/06/27 07:01:03;;;;;;;22.25;10.95;;;;;;;22.51;71.85;99063.88;125656;1096;103005;-66
2021/06/27 07:03:33;;;;;;;19.90;9.53;;;;;;;22.74;71.84;99060.17;125635;1096;103022;-66
2021/06/27 07:06:05;;;;;;;20.87;10.37;;;;;;;23.22;71.94;99056.08;125686;1094;102936;-68
2021/06/27 07:08:33;;;;;;;17.63;8.73;;;;;;;24.16;70.37;99060.38;125628;1096;102939;-66
2021/06/27 07:11:03;;;;;;;16.20;8.27;;;;;;;25.40;69.79;99054.09;125699;1096;102935;-67
2021/06/27 07:13:33;;;;;;;18.23;9.33;;;;;;;26.47;69.42;99064.02;125660;1094;103005;-66
2021/06/27 07:16:05;;;;;;;19.30;8.27;;;;;;;27.33;68.80;99055.55;125635;1093;103012;-67
2021/06/27 07:18:35;;;;;;;17.98;7.35;;;;;;;28.18;69.32;99062.41;125617;1093;102978;-70
2021/06/27 07:21:05;;;;;;;13.90;6.87;;;;;;;29.02;69.16;99057.36;125649;1092;102987;-67
2021/06/27 07:23:33;;;;;;;13.53;6.90;;;;;;;29.88;68.44;99058.94;125673;1092;102997;-67
2021/06/27 07:26:04;;;;;;;13.70;6.60;;;;;;;30.58;68.12;99062.69;125584;1093;103120;-67
2021/06/27 07:28:34;;;;;;;18.77;6.90;;;;;;;31.47;68.46;99069.58;125629;1092;102916;-68
2021/06/27 07:31:04;;;;;;;10.30;5.95;;;;;;;32.43;68.04;99068.78;125643;1093;102913;-68
2021/06/27 07:33:32;;;;;;;13.07;6.13;;;;;;;33.26;67.38;99062.27;125622;1092;103063;-66
2021/06/27 07:36:01;;;;;;;12.50;6.33;;;;;;;33.44;66.85;99061.08;125658;1093;103039;-67
2021/06/27 07:38:33;;;;;;;12.13;6.20;;;;;;;33.90;66.49;99065.27;125662;1093;102913;-67
2021/06/27 07:41:02;;;;;;;13.10;6.33;;;;;;;34.51;66.67;99053.76;125622;1093;103042;-67
2021/06/27 07:43:35;;;;;;;15.70;6.03;;;;;;;35.21;65.88;99057.24;125627;1096;103032;-68
2021/06/27 07:46:05;;;;;;;13.78;5.23;;;;;;;35.74;65.09;99052.28;125646;1093;102997;-66
2021/06/27 07:48:34;;;;;;;11.13;4.80;;;;;;;36.12;64.35;99062.18;125662;1093;102987;-66
2021/06/27 07:51:04;;;;;;;12.20;5.00;;;;;;;36.31;63.71;99057.66;125660;1093;102911;-67
2021/06/27 07:53:32;;;;;;;8.97;4.83;;;;;;;36.39;63.01;99059.04;125619;1093;102916;-66
2021/06/27 07:56:05;;;;;;;10.83;4.73;;;;;;;36.66;62.65;99060.59;125673;1093;102914;-68
2021/06/27 07:58:54;;;;;;;9.10;4.80;;;;;;;36.92;62.20;99065.97;125608;1092;102964;-67
2021/06/27 08:01:26;;;;;;;10.47;4.90;;;;;;;37.10;60.97;99061.72;125665;1093;103547;-68
2021/06/27 08:03:58;;;;;;;11.30;5.23;;;;;;;37.24;60.62;99068.28;125668;1096;103062;-68
2021/06/27 08:06:29;;;;;;;9.87;5.03;;;;;;;37.38;60.29;99070.40;125550;1092;102913;-66
2021/06/27 08:09:05;;;;;;;9.27;5.43;;;;;;;37.63;59.84;99062.98;125706;1094;103098;-71
2021/06/27 08:11:33;;;;;;;;;;;;;;;37.64;57.50;99064.64;125730;1095;102916;-70
2021/06/27 08:14:05;;;;;;;;;;;;;;;37.66;56.87;99054.92;125714;1094;103065;-71
2021/06/27 08:16:41;;;;;;;18.40;5.73;;;;;;;37.56;57.96;99056.95;125673;1093;103626;-78
2021/06/27 08:19:09;;;;;;;11.77;5.30;;;;;;;37.31;56.95;99069.90;125648;1093;102935;-69
2021/06/27 08:21:38;;;;;;;13.57;5.60;;;;;;;36.73;57.12;99071.35;125658;1093;103341;-70
2021/06/27 08:24:06;;;;;;;11.00;5.60;;;;;;;36.86;56.45;99065.19;125716;1093;102991;-72
2021/06/27 08:26:35;;;;;;;9.30;5.30;;;;;;;36.77;55.67;99069.67;125802;1092;103031;-71
2021/06/27 08:29:03;;;;;;;10.00;5.60;;;;;;;36.49;55.00;99061.77;125710;1093;102932;-73
2021/06/27 08:31:32;;;;;;;11.93;5.30;;;;;;;36.29;53.66;99068.19;125641;1093;103069;-73
2021/06/27 08:34:04;;;;;;;13.00;5.70;;;;;;;35.28;53.88;99061.38;125671;1093;102931;-73
2021/06/27 08:36:32;;;;;;;10.93;5.03;;;;;;;35.35;53.44;99054.75;125670;1093;103002;-73
2021/06/27 08:39:03;;;;;;;12.53;5.83;;;;;;;35.05;53.25;99065.53;125672;1093;103090;-74
2021/06/27 08:41:31;;;;;;;7.13;4.90;;;;;;;35.01;51.96;99059.70;125659;1093;102916;-69
2021/06/27 08:44:05;;;;;;;12.47;5.13;;;;;;;34.53;52.22;99065.36;125616;1092;102913;-74
2021/06/27 08:46:40;;;;;;;10.30;6.03;;;;;;;34.16;51.81;99066.28;125692;1091;103061;-71
2021/06/27 08:49:14;;;;;;;12.57;6.43;;;;;;;33.47;50.65;99063.31;125712;1093;102971;-74
2021/06/27 08:51:43;;;;;;;16.30;7.27;;;;;;;32.51;50.24;99068.34;125702;1092;102982;-74
2021/06/27 08:54:15;;;;;;;13.50;6.57;;;;;;;31.60;49.64;99068.41;125715;1093;102932;-72
2021/06/27 08:56:43;;;;;;;14.33;6.97;;;;;;;31.13;49.81;99061.28;125626;1092;103079;-71
2021/06/27 08:59:14;;;;;;;13.30;6.53;;;;;;;31.21;49.43;99059.21;125664;1093;103432;-74
2021/06/27 09:01:42;;;;;;;11.93;6.57;;;;;;;30.80;49.20;99068.34;125575;1092;102913;-76
2021/06/27 09:04:19;;;;;;;16.10;6.57;;;;;;;30.41;49.18;99066.19;125656;1093;102933;-75
2021/06/27 09:06:47;;;;;;;9.97;6.17;;;;;;;30.15;48.63;99062.05;125661;1093;103062;-77
2021/06/27 09:09:21;;;;;;;12.63;6.57;;;;;;;29.98;49.15;99067.44;125673;1093;103361;-76
2021/06/27 09:12:08;;;;;;;17.67;6.80;;;;;;;29.62;48.49;99069.31;125640;1093;102913;-76
2021/06/27 09:14:43;;;;;;;10.80;6.20;;;;;;;29.13;48.51;99067.52;125693;1093;102942;-75
2021/06/27 09:17:19;;;;;;;12.03;6.43;;;;;;;28.67;48.39;99067.91;125625;1093;103148;-75
2021/06/27 09:19:54;;;;;;;13.60;6.87;;;;;;;28.24;47.76;99082.53;125642;1093;102936;-75
2021/06/27 09:22:30;;;;;;;13.53;6.80;;;;;;;27.94;47.87;99078.59;125614;1093;103144;-75
2021/06/27 09:25:22;;;;;;;13.30;6.73;;;;;;;27.72;47.89;99077.34;125632;1094;103073;-73
2021/06/27 09:28:03;;;;;;;14.93;6.63;;;;;;;27.38;47.54;99072.11;125672;1093;103053;-67
2021/06/27 09:30:36;;;;;;;14.03;7.30;;;;;;;27.01;47.59;99064.61;125738;1092;102935;-67
2021/06/27 09:33:11;;;;;;;16.43;7.70;;;;;;;27.02;47.63;99066.29;125668;1093;103106;-69
2021/06/27 09:35:52;;;;;;;13.13;6.90;;;;;;;27.08;47.68;99069.20;125649;1093;103079;-67
2021/06/27 09:38:48;;;;;;;14.78;7.15;;;;;;;27.21;47.60;99068.27;125658;1093;102936;-73
2021/06/27 09:41:33;;;;;;;13.87;7.23;;;;;;;27.38;47.60;99066.66;125616;1093;103074;-72
2021/06/27 09:44:13;;;;;;;13.53;6.43;;;;;;;27.54;47.84;99062.56;125676;1093;102935;-72
2021/06/27 09:46:44;;;;;;;13.07;7.30;;;;;;;27.68;47.62;99066.04;125656;1093;102998;-72
2021/06/27 09:49:26;;;;;;;10.93;6.00;;;;;;;27.81;47.80;99073.27;125637;1092;103004;-72
2021/06/27 09:52:08;;;;;;;14.03;7.07;;;;;;;27.64;47.33;99075.73;125629;1093;102920;-70
2021/06/27 09:54:41;;;;;;;15.88;7.03;;;;;;;27.43;47.29;99075.02;125677;1093;103009;-69
2021/06/27 09:57:19;;;;;;;;;;;;;;;27.32;47.50;99073.00;125790;1093;103017;-69
2021/06/27 09:59:53;;;;;;;10.13;6.07;;;;;;;27.19;47.13;99069.33;125661;1093;102906;-70
2021/06/27 10:02:25;;;;;;;12.57;6.80;;;;;;;27.13;47.42;99072.94;125602;1093;103091;-69
2021/06/27 10:04:53;;;;;;;14.43;7.20;;;;;;;27.22;47.45;99072.67;125671;1093;102906;-70
2021/06/27 10:07:39;;;;;;;12.63;6.93;;;;;;;27.32;47.19;99073.00;125786;1093;103033;-68
2021/06/27 10:10:18;;;;;;;15.20;7.33;;;;;;;27.41;47.13;99070.85;125708;1092;103032;-66
2021/06/27 10:12:51;;;;;;;14.00;7.43;;;;;;;27.44;47.35;99070.41;125641;1092;102939;-72
2021/06/27 10:15:23;;;;;;;11.10;6.25;;;;;;;27.40;47.29;99078.19;125687;1092;102902;-72
2021/06/27 10:17:52;;;;;;;14.08;6.70;;;;;;;27.33;47.31;99067.33;125684;1093;102913;-70
2021/06/27 10:20:22;;;;;;;13.13;7.03;;;;;;;27.29;47.29;99066.09;125479;1091;102911;-70
2021/06/27 10:22:52;;;;;;;12.90;6.60;;;;;;;27.22;47.00;99064.48;125581;1093;102131;-70
2021/06/27 10:25:20;;;;;;;12.85;7.50;;;;;;;27.08;47.13;99061.02;125432;1091;103029;-71
2021/06/27 10:27:52;;;;;;;15.20;7.10;;;;;;;27.00;47.28;99056.63;125495;1092;103062;-71
2021/06/27 10:30:21;;;;;;;12.43;6.30;;;;;;;26.95;47.05;99051.84;125544;1092;103010;-70
2021/06/27 10:32:49;;;;;;;14.73;8.43;;;;;;;26.87;46.93;99052.09;125554;1092;102959;-76
2021/06/27 10:35:20;;;;;;;13.73;7.77;;;;;;;26.79;47.22;99060.50;125601;1093;103006;-72
2021/06/27 10:37:52;;;;;;;13.60;7.37;;;;;;;26.72;47.29;99063.27;125747;1093;103138;-71
2021/06/27 10:40:21;;;;;;;;;;;;;;;26.70;46.94;99062.65;125642;1093;102920;-71
2021/06/27 10:42:49;;;;;;;13.43;7.23;;;;;;;26.65;47.07;99054.28;125714;1092;102939;-72
2021/06/27 10:45:25;;;;;;;10.40;6.30;;;;;;;26.57;46.69;99060.83;126811;1093;100633;-70
2021/06/27 10:47:53;;;;;;;11.60;6.23;;;;;;;26.50;47.04;99052.66;125639;1093;103085;-72
2021/06/27 10:50:22;;;;;;;11.07;5.63;;;;;;;26.50;46.96;99063.56;127592;1092;102320;-70
2021/06/27 10:52:53;;;;;;;10.00;6.17;;;;;;;26.47;46.87;99055.84;126075;1092;102930;-71
2021/06/27 10:55:28;;;;;;;16.33;6.57;;;;;;;26.51;46.76;99054.33;125734;1093;102984;-71
2021/06/27 10:58:07;;;;;;;12.20;5.90;;;;;;;26.54;47.02;99053.90;125773;1093;102994;-74
2021/06/27 11:00:54;;;;;;;10.97;6.57;;;;;;;26.53;46.90;99054.13;126090;1092;103065;-75
2021/06/27 11:03:27;;;;;;;13.33;7.03;;;;;;;26.51;47.28;99056.23;125730;1093;102940;-73
2021/06/27 11:05:59;;;;;;;13.70;7.00;;;;;;;26.44;46.98;99059.82;125696;1093;102997;-75
2021/06/27 11:08:34;;;;;;;14.90;7.45;;;;;;;26.35;47.06;99060.28;126349;1093;103006;-73
2021/06/27 11:11:13;;;;;;;15.03;6.60;;;;;;;26.15;47.02;99064.75;125668;1093;102935;-74
2021/06/27 11:14:05;;;;;;;25.73;7.23;;;;;;;25.83;47.00;99061.00;125673;1094;102978;-74
2021/06/27 11:17:02;;;;;;;16.33;6.40;;;;;;;25.52;47.45;99070.66;125750;1093;103087;-75
2021/06/27 11:19:41;;;;;;;31.33;8.00;;;;;;;25.20;47.23;99086.73;125635;1093;103055;-74
2021/06/27 11:22:22;;;;;;;33.93;7.60;;;;;;;25.05;47.38;99095.08;125641;1096;103030;-69
2021/06/27 11:24:54;;;;;;;29.57;8.63;;;;;;;25.05;47.82;99093.19;125615;1093;103028;-68
2021/06/27 11:27:31;;;;;;;16.77;7.03;;;;;;;25.00;47.65;99092.95;125638;1093;102934;-68